Time;durP1;ratioP1;P1;durP2;ratioP2;P2;SDS_P1;SDS_P2;PMS_P1;PMS_P2;Temp;Humidity;BMP_temperature;BMP_pressure;BME280_temperature;BME280_humidity;BME280_pressure;Samples;Min_cycle;Max_cycle;Signal;HPM_P1;HPM_P2
2024/04/08 00:01:10;;;;;;;;;;;;;;;16.48;57.97;98007.25;5477044;26;19935;-90
2024/04/08 00:03:36;;;;;;;;;;;;;;;16.34;58.44;98025.28;5481779;26;19959;-90
2024/04/08 00:06:01;;;;;;;;;;;;;;;16.03;60.35;98029.91;5485001;26;19940;-91
2024/04/08 00:08:26;;;;;;;;;;;;;;;15.78;61.19;98029.97;5474773;26;19939;-91
2024/04/08 00:10:52;;;;;;;;;;;;;;;15.70;61.29;98033.59;5467277;26;19939;-90
2024/04/08 00:13:17;;;;;;;;;;;;;;;15.45;63.58;98020.16;5470931;26;20313;-90
2024/04/08 00:15:42;;;;;;;;;;;;;;;15.46;63.62;98021.94;5470440;26;20329;-90
2024/04/08 00:18:08;;;;;;;;;;;;;;;15.37;63.92;98014.78;5462519;26;19936;-89
2024/04/08 00:20:33;;;;;;;;;;;;;;;15.18;64.85;98028.25;5472009;26;19927;-90
2024/04/08 00:23:01;;;;;;;;;;;;;;;15.02;65.64;98024.69;5465310;26;19952;-89
2024/04/08 00:25:26;;;;;;;;;;;;;;;14.71;67.13;98031.78;5467515;26;19969;-89
2024/04/08 00:27:51;;;;;;;;;;;;;;;14.65;66.66;98021.06;5461443;26;19997;-88
2024/04/08 00:30:17;;;;;;;;;;;;;;;14.55;66.97;98022.81;5459999;26;20008;-90
2024/04/08 00:32:43;;;;;;;;;;;;;;;14.60;65.47;98023.72;5467521;26;19986;-89
2024/04/08 00:35:08;;;;;;;;;;;;;;;14.63;66.72;98004.97;5464630;26;19932;-89
2024/04/08 00:37:33;;;;;;;;;;;;;;;14.64;66.64;97996.00;5461041;26;20443;-89
2024/04/08 00:39:58;;;;;;;;;;;;;;;14.65;66.08;97984.34;5460677;26;20277;-90
2024/04/08 00:42:24;;;;;;;;;;;;;;;14.76;65.12;97981.72;5464716;26;20147;-89
2024/04/08 00:44:49;;;;;;;;;;;;;;;14.95;63.55;97978.13;5471842;26;19929;-88
2024/04/08 00:47:14;;;;;;;;;;;;;;;15.00;63.16;97970.97;5473662;26;19929;-88
2024/04/08 00:49:41;;;;;;;;;;;;;;;15.11;60.89;97963.78;5463384;26;19929;-89
2024/04/08 00:52:13;;;;;;;;;;;;;;;15.27;60.18;97970.00;5461130;26;19928;-89
2024/04/08 00:54:39;;;;;;;;;;;;;;;14.87;63.18;97967.38;5462421;26;19935;-90
2024/04/08 00:57:06;;;;;;;;;;;;;;;14.60;67.11;97965.56;5461664;26;19978;-89
2024/04/08 00:59:33;;;;;;;;;;;;;;;14.55;66.33;97967.34;5468523;26;19936;-90
2024/04/08 01:01:58;;;;;;;;;;;;;;;14.62;66.44;97971.84;5441660;26;19928;-89
2024/04/08 01:04:24;;;;;;;;;;;;;;;14.60;67.59;97970.03;5437640;26;19928;-90
2024/04/08 01:06:49;;;;;;;;;;;;;;;14.47;67.71;97962.81;5462818;26;20545;-90
2024/04/08 01:09:15;;;;;;;;;;;;;;;14.34;68.67;97965.50;5459287;26;19936;-89
2024/04/08 01:11:42;;;;;;;;;;;;;;;14.36;68.38;97969.06;5474783;26;20265;-90
2024/04/08 01:14:08;;;;;;;;;;;;;;;14.30;68.66;97966.38;5466763;26;19941;-90
2024/04/08 01:16:33;;;;;;;;;;;;;;;14.15;69.26;97957.41;5471701;26;19978;-90
2024/04/08 01:18:58;;;;;;;;;;;;;;;14.14;68.66;97953.84;5458425;26;20233;-90
2024/04/08 01:21:24;;;;;;;;;;;;;;;14.07;69.10;97955.59;5465794;26;19936;-90
2024/04/08 01:23:51;;;;;;;;;;;;;;;13.96;70.66;97957.34;5460584;26;19940;-90
2024/04/08 01:26:18;;;;;;;;;;;;;;;13.79;71.48;97956.41;5459421;26;19939;-90
2024/04/08 01:28:43;;;;;;;;;;;;;;;13.72;72.07;97957.28;5469203;26;19928;-90
2024/04/08 01:31:09;;;;;;;;;;;;;;;13.65;72.13;97967.06;5462616;26;19928;-90
2024/04/08 01:33:34;;;;;;;;;;;;;;;13.75;71.17;97960.88;5468974;26;19947;-91
2024/04/08 01:36:04;;;;;;;;;;;;;;;13.69;71.51;97962.59;5453903;26;19929;-90
2024/04/08 01:38:37;;;;;;;;;;;;;;;13.59;72.21;97959.00;5460465;26;19928;-91
2024/04/08 01:41:02;;;;;;;;;;;;;;;13.52;73.50;97960.75;5465475;26;19943;-90
2024/04/08 01:43:28;;;;;;;;;;;;;;;13.48;73.77;97958.94;5461572;26;19928;-91
2024/04/08 01:45:53;;;;;;;;;;;;;;;13.51;73.52;97956.28;5455790;26;20414;-91
2024/04/08 01:48:18;;;;;;;;;;;;;;;13.53;73.57;97950.94;5432625;26;20026;-90
2024/04/08 01:50:44;;;;;;;;;;;;;;;13.42;73.72;97948.19;5458816;26;19944;-90
2024/04/08 01:53:09;;;;;;;;;;;;;;;13.32;74.33;97949.03;5435817;26;19929;-92
2024/04/08 01:55:35;;;;;;;;;;;;;;;13.30;74.43;97953.47;5459283;26;19964;-89
2024/04/08 01:58:00;;;;;;;;;;;;;;;13.26;74.41;97943.63;5465136;26;19935;-90
2024/04/08 02:00:25;;;;;;;;;;;;;;;13.19;75.35;97941.78;5457833;26;19928;-89
2024/04/08 02:02:51;;;;;;;;;;;;;;;13.30;74.22;97946.34;5457094;26;20349;-88
2024/04/08 02:05:16;;;;;;;;;;;;;;;13.55;73.16;97939.31;5463781;26;19943;-90
2024/04/08 02:07:42;;;;;;;;;;;;;;;13.60;73.51;97936.66;5457103;26;19936;-89
2024/04/08 02:10:07;;;;;;;;;;;;;;;13.70;73.64;97945.63;5462889;26;19935;-89
2024/04/08 02:12:33;;;;;;;;;;;;;;;13.55;73.56;97936.63;5478575;26;20225;-89
2024/04/08 02:14:58;;;;;;;;;;;;;;;13.46;74.22;97949.09;5459218;26;19940;-90
2024/04/08 02:17:23;;;;;;;;;;;;;;;13.41;74.66;97943.72;5465345;26;19965;-90
2024/04/08 02:19:49;;;;;;;;;;;;;;;13.42;74.02;97944.63;5465367;26;19928;-90
2024/04/08 02:22:15;;;;;;;;;;;;;;;13.37;74.73;97949.97;5471215;26;19996;-90
2024/04/08 02:24:40;;;;;;;;;;;;;;;13.24;74.83;97940.94;5474768;26;19940;-89
2024/04/08 02:27:06;;;;;;;;;;;;;;;13.31;74.84;97939.19;5453841;26;20042;-90
2024/04/08 02:29:32;;;;;;;;;;;;;;;13.29;75.71;97941.88;5457624;26;19936;-90
2024/04/08 02:31:57;;;;;;;;;;;;;;;13.25;75.52;97944.53;5464703;26;19994;-89
2024/04/08 02:34:22;;;;;;;;;;;;;;;13.21;75.87;97940.88;5459923;26;19929;-90
2024/04/08 02:36:48;;;;;;;;;;;;;;;13.29;76.03;97952.59;5466457;26;19927;-90
2024/04/08 02:39:13;;;;;;;;;;;;;;;13.26;75.44;97957.03;5469503;26;19929;-90
2024/04/08 02:41:39;;;;;;;;;;;;;;;13.32;75.74;97957.97;5465178;26;20339;-89
2024/04/08 02:44:04;;;;;;;;;;;;;;;13.36;76.03;97958.88;5457627;26;20788;-89
2024/04/08 02:46:29;;;;;;;;;;;;;;;13.21;76.33;97961.44;5462070;26;20373;-88
2024/04/08 02:48:55;;;;;;;;;;;;;;;13.23;76.02;97967.75;5465243;26;19935;-89
2024/04/08 02:51:22;;;;;;;;;;;;;;;13.23;76.38;97970.41;5464475;26;19928;-89
2024/04/08 02:53:48;;;;;;;;;;;;;;;13.22;76.15;97977.56;5463841;26;19928;-89
2024/04/08 02:56:13;;;;;;;;;;;;;;;13.41;75.36;97970.50;5463436;26;20288;-90
2024/04/08 02:58:39;;;;;;;;;;;;;;;13.39;75.31;97984.78;5466209;26;19996;-88
2024/04/08 03:01:09;;;;;;;;;;;;;;;13.26;76.03;97970.41;5432650;26;19929;-88
2024/04/08 03:03:35;;;;;;;;;;;;;;;13.03;77.33;97963.13;5462433;26;20058;-89
2024/04/08 03:06:13;;;;;;;;;;;;;;;12.89;78.15;97978.19;5457586;26;19935;-89
2024/04/08 03:08:40;;;;;;;;;;;;;;;12.70;79.21;97968.22;5468401;26;19928;-88
2024/04/08 03:11:05;;;;;;;;;;;;;;;12.61;79.61;97973.47;5456197;26;19929;-88
2024/04/08 03:13:31;;;;;;;;;;;;;;;12.46;80.61;97974.25;5475128;26;19998;-88
2024/04/08 03:15:56;;;;;;;;;;;;;;;12.29;81.16;97972.28;5459944;26;19929;-88
2024/04/08 03:18:22;;;;;;;;;;;;;;;12.22;81.54;97975.78;5462098;26;19961;-89
2024/04/08 03:20:58;;;;;;;;;;;;;;;12.18;81.93;97973.06;5455909;26;19929;-88
2024/04/08 03:23:23;;;;;;;;;;;;;;;12.07;82.27;97976.53;5470866;26;19935;-88
2024/04/08 03:26:01;;;;;;;;;;;;;;;12.00;82.41;97982.66;5469607;26;19928;-88
2024/04/08 03:28:26;;;;;;;;;;;;;;;11.87;83.27;97986.06;5462583;26;20001;-88
2024/04/08 03:30:52;;;;;;;;;;;;;;;11.90;83.92;97980.75;5472959;26;20258;-88
2024/04/08 03:33:21;;;;;;;;;;;;;;;11.74;84.39;97987.69;5467633;26;19936;-88
2024/04/08 03:35:47;;;;;;;;;;;;;;;11.71;85.15;97986.72;5466290;26;19980;-89
2024/04/08 03:38:13;;;;;;;;;;;;;;;11.46;86.15;97994.44;5436924;26;19928;-88
2024/04/08 03:40:38;;;;;;;;;;;;;;;11.29;86.65;97991.50;5438571;26;19928;-90
2024/04/08 03:43:05;;;;;;;;;;;;;;;11.50;85.89;97998.94;5467205;26;19928;-87
2024/04/08 03:45:30;;;;;;;;;;;;;;;11.32;86.78;97998.69;5469474;26;19941;-89
2024/04/08 03:47:56;;;;;;;;;;;;;;;11.17;86.87;97994.00;5461780;26;19928;-89
2024/04/08 03:50:21;;;;;;;;;;;;;;;11.03;87.57;98001.81;5473297;26;19998;-89
2024/04/08 03:52:49;;;;;;;;;;;;;;;10.96;88.08;98013.25;5442952;26;19936;-89
2024/04/08 03:55:17;;;;;;;;;;;;;;;10.88;88.54;98011.34;5461875;26;20285;-90
2024/04/08 03:57:42;;;;;;;;;;;;;;;10.84;89.12;98014.84;5478627;26;19928;-89
2024/04/08 04:00:08;;;;;;;;;;;;;;;10.64;90.11;98020.75;5477114;26;20278;-88
2024/04/08 04:02:33;;;;;;;;;;;;;;;11.09;89.05;98016.13;5469956;26;19936;-89
2024/04/08 04:04:59;;;;;;;;;;;;;;;10.86;89.77;98016.66;5446671;26;19932;-88
2024/04/08 04:07:24;;;;;;;;;;;;;;;11.01;89.16;98029.34;5469886;26;19931;-88
2024/04/08 04:09:49;;;;;;;;;;;;;;;10.76;89.70;98028.03;5465485;26;19929;-88
2024/04/08 04:12:14;;;;;;;;;;;;;;;10.65;90.78;98033.19;5469378;26;19935;-89
2024/04/08 04:14:40;;;;;;;;;;;;;;;10.52;90.82;98044.50;5472914;26;19928;-88
2024/04/08 04:17:05;;;;;;;;;;;;;;;10.36;91.66;98038.00;5435754;26;19936;-89
2024/04/08 04:19:32;;;;;;;;;;;;;;;10.38;91.50;98041.59;5469719;26;20441;-89
2024/04/08 04:21:57;;;;;;;;;;;;;;;10.19;92.35;98026.06;5456187;26;20407;-88
2024/04/08 04:24:23;;;;;;;;;;;;;;;10.20;92.32;98027.88;5463717;26;19936;-88
2024/04/08 04:26:48;;;;;;;;;;;;;;;10.07;92.06;98028.53;5442017;26;19978;-88
2024/04/08 04:29:13;;;;;;;;;;;;;;;9.94;92.39;98033.59;5459937;26;20381;-89
2024/04/08 04:31:43;;;;;;;;;;;;;;;9.95;92.33;98030.06;5475052;26;20671;-88
2024/04/08 04:34:08;;;;;;;;;;;;;;;9.85;92.85;98033.41;5446971;26;19928;-88
2024/04/08 04:36:34;;;;;;;;;;;;;;;9.74;93.03;98025.19;5442186;26;19953;-89
2024/04/08 04:38:59;;;;;;;;;;;;;;;9.54;93.15;98031.88;5464397;26;19940;-90
2024/04/08 04:41:24;;;;;;;;;;;;;;;9.48;94.32;98034.38;5464068;26;20413;-89
2024/04/08 04:43:50;;;;;;;;;;;;;;;9.46;93.97;98033.44;5438843;26;19940;-88
2024/04/08 04:46:15;;;;;;;;;;;;;;;9.45;94.54;98037.88;5439396;26;19928;-89
2024/04/08 04:48:41;;;;;;;;;;;;;;;9.40;94.20;98033.31;5468440;26;19960;-89
2024/04/08 04:51:06;;;;;;;;;;;;;;;9.46;94.32;98039.69;5460553;26;19997;-89
2024/04/08 04:53:31;;;;;;;;;;;;;;;9.47;94.62;98029.91;5439718;26;19927;-88
2024/04/08 04:55:57;;;;;;;;;;;;;;;9.46;93.20;98029.03;5439793;26;19932;-90
2024/04/08 04:58:22;;;;;;;;;;;;;;;9.26;93.99;98030.34;5462636;26;19938;-89
2024/04/08 05:00:48;;;;;;;;;;;;;;;9.37;95.14;98028.81;5478515;26;19941;-90
2024/04/08 05:03:14;;;;;;;;;;;;;;;9.46;94.43;98037.00;5466509;26;19961;-91
2024/04/08 05:05:39;;;;;;;;;;;;;;;9.56;94.92;98029.22;5459344;26;19928;-90
2024/04/08 05:08:05;;;;;;;;;;;;;;;9.71;94.59;98033.09;5470733;26;19940;-89
2024/04/08 05:10:31;;;;;;;;;;;;;;;9.67;93.71;98035.66;5460336;26;19935;-90
2024/04/08 05:12:56;;;;;;;;;;;;;;;9.75;94.47;98040.31;5439423;26;20348;-90
2024/04/08 05:15:21;;;;;;;;;;;;;;;9.83;93.46;98039.59;5459426;26;19940;-89
2024/04/08 05:17:47;;;;;;;;;;;;;;;9.81;93.14;98046.63;5462729;26;20845;-89
2024/04/08 05:20:12;;;;;;;;;;;;;;;9.94;93.07;98044.25;5462154;26;19936;-89
2024/04/08 05:22:44;;;;;;;;;;;;;;;10.00;92.50;98044.38;5461758;26;20430;-89
2024/04/08 05:25:09;;;;;;;;;;;;;;;10.07;91.43;98052.50;5461747;26;20354;-90
2024/04/08 05:27:35;;;;;;;;;;;;;;;10.21;90.39;98048.34;5442266;26;20152;-90
2024/04/08 05:30:00;;;;;;;;;;;;;;;10.29;88.66;98065.41;5486297;25;19934;-91
2024/04/08 05:32:25;;;;;;;;;;;;;;;10.38;88.34;98065.59;5478837;26;19960;-89
2024/04/08 05:34:51;;;;;;;;;;;;;;;10.47;87.75;98070.19;5432021;26;20243;-89
2024/04/08 05:37:16;;;;;;;;;;;;;;;10.33;88.22;98061.94;5461742;26;19936;-91
2024/04/08 05:39:41;;;;;;;;;;;;;;;10.43;88.52;98068.34;5462927;26;19935;-90
2024/04/08 05:42:07;;;;;;;;;;;;;;;10.50;88.06;98072.94;5467275;26;19935;-90
2024/04/08 05:44:33;;;;;;;;;;;;;;;10.55;88.20;98068.59;5457704;26;19935;-89
2024/04/08 05:46:58;;;;;;;;;;;;;;;10.68;87.10;98067.00;5439713;26;19936;-89
2024/04/08 05:49:24;;;;;;;;;;;;;;;10.82;87.54;98059.25;5459686;26;20349;-89
2024/04/08 05:51:50;;;;;;;;;;;;;;;10.95;86.86;98061.28;5455014;26;19929;-89
2024/04/08 05:54:17;;;;;;;;;;;;;;;11.14;85.76;98060.69;5460015;26;19956;-87
2024/04/08 05:56:42;;;;;;;;;;;;;;;11.30;85.33;98065.41;5454156;26;19928;-89
2024/04/08 05:59:07;;;;;;;;;;;;;;;11.54;84.69;98054.19;5475709;26;19928;-89
2024/04/08 06:01:35;;;;;;;;;;;;;;;11.92;82.64;98058.28;5463590;26;19938;-88
2024/04/08 06:04:00;;;;;;;;;;;;;;;12.31;81.00;98055.19;5467975;26;19956;-90
2024/04/08 06:06:25;;;;;;;;;;;;;;;12.65;78.86;98051.13;5471719;26;19996;-89
2024/04/08 06:09:00;;;;;;;;;;;;;;;12.89;77.94;98053.16;5463628;26;19932;-90
2024/04/08 06:11:26;;;;;;;;;;;;;;;13.00;77.08;98043.41;5467685;26;19934;-89
2024/04/08 06:13:51;;;;;;;;;;;;;;;13.21;76.32;98036.44;5463554;26;19928;-89
2024/04/08 06:16:16;;;;;;;;;;;;;;;13.26;76.15;98042.75;5489154;26;19965;-89
2024/04/08 06:18:41;;;;;;;;;;;;;;;13.46;75.29;98034.84;5471047;26;19936;-88
2024/04/08 06:21:07;;;;;;;;;;;;;;;13.63;74.33;98034.97;5467712;26;20321;-89
2024/04/08 06:23:32;;;;;;;;;;;;;;;13.96;73.73;98024.41;5462554;26;20366;-89
2024/04/08 06:25:58;;;;;;;;;;;;;;;14.08;73.34;98024.47;5458037;26;19936;-90
2024/04/08 06:28:25;;;;;;;;;;;;;;;14.29;72.00;98028.09;5482215;26;19928;-89
2024/04/08 06:30:50;;;;;;;;;;;;;;;14.38;71.44;98033.50;5468472;26;19939;-92
2024/04/08 06:33:16;;;;;;;;;;;;;;;14.57;70.05;98029.13;5479230;26;19928;-90
2024/04/08 06:35:44;;;;;;;;;;;;;;;14.65;70.50;98029.09;5459533;26;19939;-91
2024/04/08 06:38:10;;;;;;;;;;;;;;;14.91;69.38;98030.06;5461729;26;19928;-89
2024/04/08 06:40:36;;;;;;;;;;;;;;;15.22;68.15;98039.00;5474717;26;19974;-90
2024/04/08 06:43:01;;;;;;;;;;;;;;;15.44;67.24;98021.06;5468968;26;20329;-91
2024/04/08 06:45:27;;;;;;;;;;;;;;;15.67;66.98;98020.16;5454724;26;19944;-90
2024/04/08 06:47:53;;;;;;;;;;;;;;;15.87;65.35;98018.31;5470253;26;19928;-93
2024/04/08 06:50:18;;;;;;;;;;;;;;;16.06;64.56;98024.53;5484265;26;19947;-90
2024/04/08 06:52:44;;;;;;;;;;;;;;;16.35;63.63;98019.88;5443774;26;20410;-90
2024/04/08 06:55:09;;;;;;;;;;;;;;;16.80;62.61;98020.53;5462199;26;19928;-92
2024/04/08 06:57:35;;;;;;;;;;;;;;;17.12;61.80;98019.41;5467024;26;19928;-92
2024/04/08 07:00:00;;;;;;;;;;;;;;;17.26;61.49;98017.47;5471694;26;19941;-91
2024/04/08 07:02:25;;;;;;;;;;;;;;;17.53;61.11;98016.31;5457746;26;20406;-92
2024/04/08 07:04:51;;;;;;;;;;;;;;;17.83;60.03;98014.25;5440017;26;19931;-92
2024/04/08 07:07:16;;;;;;;;;;;;;;;18.10;59.10;98016.59;5462712;26;20371;-91
2024/04/08 07:09:42;;;;;;;;;;;;;;;18.27;58.07;98018.22;5478728;26;20386;-93
2024/04/08 07:12:08;;;;;;;;;;;;;;;18.64;57.36;98006.00;5465535;26;19928;-91
2024/04/08 07:14:34;;;;;;;;;;;;;;;18.61;57.33;98006.03;5451349;26;20005;-91
2024/04/08 07:16:59;;;;;;;;;;;;;;;18.90;56.55;98010.13;5464625;26;19978;-91
2024/04/08 07:19:24;;;;;;;;;;;;;;;19.11;56.12;98009.78;5444163;26;19952;-92
2024/04/08 07:21:50;;;;;;;;;;;;;;;19.29;55.72;98005.00;5447746;26;19937;-93
2024/04/08 07:24:15;;;;;;;;;;;;;;;19.56;54.61;98007.22;5460333;26;20066;-93
2024/04/08 07:26:41;;;;;;;;;;;;;;;19.51;54.67;98003.69;5438265;26;20415;-94
2024/04/08 07:29:07;;;;;;;;;;;;;;;20.09;53.30;98005.31;5468002;26;19935;-93
2024/04/08 07:31:32;;;;;;;;;;;;;;;20.15;53.18;98007.00;5459774;26;20361;-92
2024/04/08 07:33:58;;;;;;;;;;;;;;;20.80;51.40;97992.97;5467875;26;20032;-91
2024/04/08 07:36:23;;;;;;;;;;;;;;;20.69;51.61;97985.94;5472875;26;20014;-92
2024/04/08 07:38:48;;;;;;;;;;;;;;;20.58;52.46;97984.41;5470165;26;19929;-93
2024/04/08 07:41:14;;;;;;;;;;;;;;;20.87;51.83;97984.63;5478899;26;20718;-93
2024/04/08 07:43:40;;;;;;;;;;;;;;;21.25;49.39;97993.63;5468253;26;20055;-93
2024/04/08 07:46:07;;;;;;;;;;;;;;;22.08;47.95;97988.72;5466776;26;19939;-93
2024/04/08 07:48:32;;;;;;;;;;;;;;;22.50;47.19;97976.59;5471458;26;20018;-93
2024/04/08 07:50:57;;;;;;;;;;;;;;;23.09;47.37;97981.09;5463537;26;19936;-93
2024/04/08 07:53:23;;;;;;;;;;;;;;;23.46;46.24;97978.03;5461628;26;20000;-93
2024/04/08 07:55:48;;;;;;;;;;;;;;;23.42;46.53;97979.06;5465529;26;19932;-92
2024/04/08 07:58:14;;;;;;;;;;;;;;;23.30;46.80;97974.94;5463699;26;20060;-93
2024/04/08 08:00:39;;;;;;;;;;;;;;;22.95;47.34;97969.81;5472432;26;19928;-93
2024/04/08 08:03:05;;;;;;;;;;;;;;;23.60;45.39;97966.66;5464997;26;20933;-92
2024/04/08 08:05:31;;;;;;;;;;;;;;;24.17;44.17;97973.69;5465198;26;19928;-93
2024/04/08 08:07:57;;;;;;;;;;;;;;;24.73;42.28;97973.38;5461656;26;20354;-93
2024/04/08 08:10:22;;;;;;;;;;;;;;;25.10;41.17;97971.00;5479530;26;19928;-93
2024/04/08 08:12:48;;;;;;;;;;;;;;;25.10;40.99;97969.16;5464432;26;19928;-93
2024/04/08 08:15:14;;;;;;;;;;;;;;;25.23;40.21;97967.69;5492132;26;19936;-93
2024/04/08 08:17:39;;;;;;;;;;;;;;;25.32;40.69;97961.84;5447401;26;19936;-93
2024/04/08 08:20:05;;;;;;;;;;;;;;;26.13;38.58;97962.00;5465651;26;19935;-91
2024/04/08 08:22:30;;;;;;;;;;;;;;;26.28;38.93;97953.97;5462089;26;19936;-93
2024/04/08 08:24:56;;;;;;;;;;;;;;;26.94;38.03;97955.44;5450458;26;20249;-93
2024/04/08 08:27:21;;;;;;;;;;;;;;;27.14;33.57;97958.09;5485546;26;19932;-93
2024/04/08 08:29:49;;;;;;;;;;;;;;;27.39;32.14;97959.59;5456343;26;19928;-93
2024/04/08 08:32:14;;;;;;;;;;;;;;;27.59;28.74;97963.06;5456456;26;19929;-91
2024/04/08 08:34:39;;;;;;;;;;;;;;;27.43;29.61;97961.22;5465457;26;20346;-93
2024/04/08 08:37:05;;;;;;;;;;;;;;;27.91;29.58;97960.53;5441252;26;20315;-93
2024/04/08 08:39:34;;;;;;;;;;;;;;;27.57;26.92;97955.91;5460337;26;19928;-93
2024/04/08 08:42:00;;;;;;;;;;;;;;;26.33;27.36;97960.09;5462757;26;20018;-93
2024/04/08 08:44:28;;;;;;;;;;;;;;;27.13;26.88;97958.19;5438556;26;19939;-93
2024/04/08 08:46:54;;;;;;;;;;;;;;;27.70;26.78;97961.66;5465535;26;20406;-92
2024/04/08 08:49:20;;;;;;;;;;;;;;;28.47;24.82;97955.72;5462586;26;19929;-94
2024/04/08 08:51:46;;;;;;;;;;;;;;;27.00;25.27;97950.53;5457924;26;19932;-90
2024/04/08 08:54:11;;;;;;;;;;;;;;;26.85;25.90;97954.03;5464939;26;19936;-91
2024/04/08 08:56:37;;;;;;;;;;;;;;;28.14;25.01;97951.09;5427819;26;19997;-91
2024/04/08 08:59:03;;;;;;;;;;;;;;;28.86;24.17;97952.59;5457492;26;20385;-91
2024/04/08 09:01:32;;;;;;;;;;;;;;;27.87;25.52;97951.59;5457194;26;19928;-93
2024/04/08 09:03:58;;;;;;;;;;;;;;;26.86;27.03;97940.25;5460160;26;19940;-90
2024/04/08 09:06:23;;;;;;;;;;;;;;;28.01;26.34;97933.50;5475405;26;19992;-90
2024/04/08 09:08:49;;;;;;;;;;;;;;;27.68;28.31;97933.41;5455678;26;19997;-91
2024/04/08 09:11:16;;;;;;;;;;;;;;;26.26;27.46;97938.59;5464088;26;19928;-90
2024/04/08 09:13:41;;;;;;;;;;;;;;;27.32;27.81;97931.63;5464694;26;20680;-90
2024/04/08 09:16:06;;;;;;;;;;;;;;;27.01;27.22;97929.50;5445919;26;19935;-91
2024/04/08 09:18:33;;;;;;;;;;;;;;;26.47;28.53;97932.13;5468908;26;19933;-90
2024/04/08 09:20:58;;;;;;;;;;;;;;;25.84;28.91;97926.81;5438454;26;20035;-90
2024/04/08 09:23:25;;;;;;;;;;;;;;;25.48;28.72;97920.22;5478725;26;19944;-92
2024/04/08 09:25:50;;;;;;;;;;;;;;;26.88;28.60;97922.88;5470328;26;19928;-91
2024/04/08 09:28:15;;;;;;;;;;;;;;;28.20;25.97;97904.09;5464310;26;20117;-90
2024/04/08 09:30:41;;;;;;;;;;;;;;;29.00;24.94;97910.63;5472015;26;20258;-91
2024/04/08 09:33:08;;;;;;;;;;;;;;;28.48;25.54;97910.84;5459363;26;19939;-92
2024/04/08 09:35:38;;;;;;;;;;;;;;;30.12;23.62;97913.00;5462055;26;20328;-93
2024/04/08 09:38:04;;;;;;;;;;;;;;;30.80;22.60;97909.59;5460798;26;19940;-91
2024/04/08 09:40:30;;;;;;;;;;;;;;;30.70;22.05;97905.63;5467962;26;19928;-92
2024/04/08 09:42:56;;;;;;;;;;;;;;;29.26;23.77;97906.34;5465320;26;20049;-91
2024/04/08 09:45:23;;;;;;;;;;;;;;;30.55;22.14;97908.41;5460489;26;20001;-92
2024/04/08 09:47:51;;;;;;;;;;;;;;;31.15;21.97;97897.09;5472436;26;20337;-91
2024/04/08 09:50:17;;;;;;;;;;;;;;;28.80;22.59;97915.41;5434939;26;20357;-93
2024/04/08 09:52:42;;;;;;;;;;;;;;;30.88;20.72;97899.84;5463662;26;19929;-93
2024/04/08 09:55:11;;;;;;;;;;;;;;;30.84;19.85;97900.13;5460892;26;20661;-93
2024/04/08 09:57:39;;;;;;;;;;;;;;;30.84;19.98;97900.13;5465636;26;19936;-92
2024/04/08 10:00:08;;;;;;;;;;;;;;;29.06;20.84;97889.19;5447170;26;19928;-92
2024/04/08 10:02:38;;;;;;;;;;;;;;;28.39;21.10;97898.53;5478648;26;19943;-91
2024/04/08 10:05:03;;;;;;;;;;;;;;;30.03;21.16;97880.56;5455886;26;20001;-92
2024/04/08 10:07:31;;;;;;;;;;;;;;;29.73;19.54;97870.50;5458816;26;20339;-91
2024/04/08 10:09:58;;;;;;;;;;;;;;;30.57;18.96;97878.91;5463460;26;19928;-91
2024/04/08 10:12:36;;;;;;;;;;;;;;;31.79;17.34;97879.88;5451678;26;19929;-91
2024/04/08 10:15:14;;;;;;;;;;;;;;;32.09;16.98;97874.09;5461750;26;19942;-91
2024/04/08 10:17:40;;;;;;;;;;;;;;;32.94;16.00;97872.47;5472836;26;20009;-92
2024/04/08 10:20:07;;;;;;;;;;;;;;;33.89;15.33;97874.31;5467550;26;20253;-92
2024/04/08 10:22:34;;;;;;;;;;;;;;;33.09;16.29;97876.81;5474467;26;19927;-92
2024/04/08 10:25:00;;;;;;;;;;;;;;;33.03;16.24;97863.47;5453755;26;19973;-92
2024/04/08 10:27:28;;;;;;;;;;;;;;;32.75;16.14;97861.88;5473250;26;19928;-92
2024/04/08 10:29:57;;;;;;;;;;;;;;;30.43;17.97;97867.91;5462472;26;19936;-92
2024/04/08 10:32:23;;;;;;;;;;;;;;;32.19;17.23;97858.63;5472240;26;19931;-91
2024/04/08 10:34:49;;;;;;;;;;;;;;;30.36;18.36;97850.03;5470795;26;19927;-92
2024/04/08 10:37:14;;;;;;;;;;;;;;;30.36;18.32;97845.41;5460469;26;19997;-92
2024/04/08 10:39:39;;;;;;;;;;;;;;;32.40;16.73;97839.66;5472833;26;19929;-93
2024/04/08 10:42:24;;;;;;;;;;;;;;;33.12;16.34;97853.63;5468263;26;19935;-92
2024/04/08 10:44:51;;;;;;;;;;;;;;;33.53;15.74;97846.78;5465845;26;19930;-93
2024/04/08 10:47:16;;;;;;;;;;;;;;;32.83;17.12;97853.91;5458926;26;19940;-93
2024/04/08 10:49:42;;;;;;;;;;;;;;;34.26;15.16;97845.56;5471914;26;19939;-93
2024/04/08 10:52:09;;;;;;;;;;;;;;;33.74;16.06;97839.56;5466047;26;20013;-90
2024/04/08 10:54:35;;;;;;;;;;;;;;;34.04;16.43;97836.25;5461754;26;19978;-91
2024/04/08 10:57:02;;;;;;;;;;;;;;;34.64;15.59;97831.38;5471439;26;20019;-92
2024/04/08 10:59:28;;;;;;;;;;;;;;;35.00;15.16;97832.09;5459197;26;19940;-89
2024/04/08 11:01:54;;;;;;;;;;;;;;;35.10;15.54;97835.84;5469342;26;19964;-92
2024/04/08 11:04:21;;;;;;;;;;;;;;;35.37;14.72;97839.03;5439858;26;19928;-92
2024/04/08 11:06:47;;;;;;;;;;;;;;;35.43;14.44;97846.81;5458883;26;20262;-90
2024/04/08 11:09:12;;;;;;;;;;;;;;;35.65;14.62;97842.25;5457160;26;19936;-91
2024/04/08 11:11:38;;;;;;;;;;;;;;;35.46;13.84;97841.06;5456088;26;19935;-91
2024/04/08 11:14:05;;;;;;;;;;;;;;;35.81;13.26;97845.41;5461933;26;19943;-91
2024/04/08 11:16:33;;;;;;;;;;;;;;;35.75;13.40;97836.75;5463964;26;19932;-91
2024/04/08 11:19:00;;;;;;;;;;;;;;;36.09;13.29;97831.91;5472071;26;19935;-91
2024/04/08 11:21:26;;;;;;;;;;;;;;;36.48;13.21;97828.31;5460789;26;19928;-91
2024/04/08 11:23:52;;;;;;;;;;;;;;;37.15;12.71;97826.81;5488443;26;20254;-90
2024/04/08 11:26:19;;;;;;;;;;;;;;;34.41;16.49;97830.50;5432348;26;19929;-90
2024/04/08 11:28:44;;;;;;;;;;;;;;;36.83;12.20;97812.19;5428439;26;20001;-91
2024/04/08 11:31:09;;;;;;;;;;;;;;;35.16;13.78;97814.00;5429810;26;20322;-89
2024/04/08 11:33:35;;;;;;;;;;;;;;;35.18;13.67;97808.34;5432623;26;19929;-92
2024/04/08 11:36:01;;;;;;;;;;;;;;;36.32;13.34;97807.59;5410657;26;19941;-91
2024/04/08 11:38:27;;;;;;;;;;;;;;;35.60;13.65;97802.88;5420602;26;19956;-91
2024/04/08 11:40:54;;;;;;;;;;;;;;;33.95;14.91;97810.19;5415561;26;19974;-91
2024/04/08 11:43:19;;;;;;;;;;;;;;;35.33;15.70;97804.25;5402088;26;20425;-91
2024/04/08 11:45:45;;;;;;;;;;;;;;;33.27;15.94;97808.19;5431291;26;19928;-92
2024/04/08 11:48:10;;;;;;;;;;;;;;;33.08;16.25;97803.19;5421502;26;19929;-91
2024/04/08 11:50:35;;;;;;;;;;;;;;;33.66;14.95;97800.53;5430192;26;19935;-91
2024/04/08 11:53:01;;;;;;;;;;;;;;;35.84;14.92;97802.59;5430237;26;19979;-91
2024/04/08 11:55:26;;;;;;;;;;;;;;;36.90;13.54;97807.84;5424525;26;19929;-90
2024/04/08 11:57:51;;;;;;;;;;;;;;;36.43;13.63;97808.41;5439478;26;19929;-91
2024/04/08 12:00:20;;;;;;;;;;;;;;;36.51;13.95;97810.50;5421161;26;20365;-90
2024/04/08 12:02:47;;;;;;;;;;;;;;;36.10;14.27;97803.97;5425197;26;19997;-89
2024/04/08 12:05:12;;;;;;;;;;;;;;;36.55;14.02;97811.09;5418612;26;19983;-91
2024/04/08 12:07:37;;;;;;;;;;;;;;;36.98;14.06;97810.81;5431576;26;19945;-91
2024/04/08 12:10:04;;;;;;;;;;;;;;;35.69;14.47;97808.53;5407952;26;20196;-91
2024/04/08 12:12:30;;;;;;;;;;;;;;;35.31;15.29;97802.63;5433881;26;19936;-90
2024/04/08 12:14:55;;;;;;;;;;;;;;;35.62;14.97;97818.41;5424195;26;19929;-90
2024/04/08 12:17:21;;;;;;;;;;;;;;;35.48;15.45;97804.84;5420766;26;19987;-90
2024/04/08 12:19:53;;;;;;;;;;;;;;;37.47;14.39;97804.31;5447073;26;19929;-91
2024/04/08 12:22:18;;;;;;;;;;;;;;;36.71;15.35;97815.09;5423325;26;19996;-91
2024/04/08 12:24:43;;;;;;;;;;;;;;;37.47;14.37;97809.88;5421930;26;19937;-91
2024/04/08 12:27:09;;;;;;;;;;;;;;;37.56;14.47;97805.31;5411109;26;19965;-91
2024/04/08 12:29:34;;;;;;;;;;;;;;;37.20;14.70;97809.69;5429142;26;19929;-89
2024/04/08 12:31:59;;;;;;;;;;;;;;;36.91;14.78;97816.06;5423967;26;20419;-90
2024/04/08 12:34:26;;;;;;;;;;;;;;;36.62;15.75;97813.16;5422501;26;19935;-90
2024/04/08 12:36:51;;;;;;;;;;;;;;;36.86;14.66;97798.91;5435494;26;19929;-91
2024/04/08 12:39:16;;;;;;;;;;;;;;;37.00;14.92;97808.78;5410113;26;20300;-91
2024/04/08 12:41:42;;;;;;;;;;;;;;;36.74;15.93;97813.94;5425005;26;19929;-91